Time;durP1;ratioP1;P1;durP2;ratioP2;P2;SDS_P1;SDS_P2;PMS_P1;PMS_P2;Temp;Humidity;BMP_temperature;BMP_pressure;BME280_temperature;BME280_humidity;BME280_pressure;Samples;Min_cycle;Max_cycle;Signal;HPM_P1;HPM_P2
2021/12/06 00:00:28;;;;;;;1.20;0.80;;;6.90;99.90;;;;;;4986080;28;20794;-71
2021/12/06 00:02:57;;;;;;;1.17;0.80;;;6.90;99.90;;;;;;4984056;28;20029;-72
2021/12/06 00:05:25;;;;;;;1.00;0.80;;;6.90;99.90;;;;;;4987833;28;20034;-71
2021/12/06 00:07:53;;;;;;;0.57;0.57;;;6.90;99.90;;;;;;4992066;28;20034;-72
2021/12/06 00:10:19;;;;;;;1.17;0.77;;;6.90;99.90;;;;;;4994155;28;20034;-72
2021/12/06 00:12:45;;;;;;;0.85;0.63;;;7.00;99.90;;;;;;4990263;28;20039;-72
2021/12/06 00:15:13;;;;;;;1.17;0.70;;;7.00;99.90;;;;;;4991846;28;20030;-71
2021/12/06 00:17:39;;;;;;;0.30;0.30;;;7.00;99.90;;;;;;4991766;28;20069;-70
2021/12/06 00:20:08;;;;;;;0.80;0.80;;;7.00;99.90;;;;;;4991255;28;20390;-71
2021/12/06 00:22:34;;;;;;;0.38;0.38;;;7.00;99.90;;;;;;4997896;28;20441;-71
2021/12/06 00:25:00;;;;;;;0.75;0.75;;;7.00;99.90;;;;;;4999272;28;20097;-72
2021/12/06 00:27:26;;;;;;;0.50;0.50;;;7.00;99.90;;;;;;4991105;28;20057;-71
2021/12/06 00:29:52;;;;;;;1.23;0.60;;;7.10;99.90;;;;;;4991283;28;20026;-71
2021/12/06 00:32:19;;;;;;;2.15;1.05;;;7.00;99.90;;;;;;4991490;28;20045;-71
2021/12/06 00:34:45;;;;;;;1.38;1.25;;;7.00;99.90;;;;;;4991648;28;20022;-71
2021/12/06 00:40:08;;;;;;;1.15;0.52;;;7.00;99.90;;;;;;4986730;28;20034;-72
2021/12/06 00:42:34;;;;;;;1.27;1.17;;;7.00;99.90;;;;;;4992255;28;20033;-71
2021/12/06 00:45:03;;;;;;;0.82;0.65;;;7.00;99.90;;;;;;4990685;28;20436;-72
2021/12/06 00:47:29;;;;;;;0.50;0.50;;;7.00;99.90;;;;;;4993077;28;20062;-72
2021/12/06 00:49:55;;;;;;;2.55;0.77;;;6.90;99.90;;;;;;4992562;28;20066;-72
2021/12/06 00:52:21;;;;;;;1.75;0.77;;;6.90;99.90;;;;;;4993008;28;20031;-71
2021/12/06 00:54:48;;;;;;;2.20;0.82;;;6.90;99.90;;;;;;4988339;28;20029;-71
2021/12/06 00:57:14;;;;;;;0.75;0.75;;;6.90;99.90;;;;;;4990534;28;20457;-71
2021/12/06 00:59:41;;;;;;;1.38;1.00;;;6.90;99.90;;;;;;4991580;28;20027;-72
2021/12/06 01:02:09;;;;;;;0.52;0.52;;;6.80;99.90;;;;;;4996652;28;20481;-72
2021/12/06 01:04:37;;;;;;;1.48;0.77;;;6.80;99.90;;;;;;5000930;28;20023;-72
2021/12/06 01:07:05;;;;;;;1.00;0.70;;;6.80;99.90;;;;;;4994810;28;20493;-72
2021/12/06 01:09:31;;;;;;;1.00;0.77;;;6.80;99.90;;;;;;4990559;28;20030;-72
2021/12/06 01:11:57;;;;;;;0.52;0.50;;;6.80;99.90;;;;;;4990841;28;20038;-72
2021/12/06 01:14:23;;;;;;;0.65;0.60;;;6.70;99.90;;;;;;4991422;28;20034;-71
2021/12/06 01:16:49;;;;;;;0.43;0.43;;;6.80;99.90;;;;;;4988098;28;20037;-72
2021/12/06 01:19:15;;;;;;;1.38;0.50;;;6.80;99.90;;;;;;4985078;28;20477;-71
2021/12/06 01:21:52;;;;;;;0.52;0.52;;;6.80;99.90;;;;;;4987272;28;20105;-72
2021/12/06 01:24:24;;;;;;;0.47;0.47;;;6.70;99.90;;;;;;4987368;28;20077;-72
2021/12/06 01:29:49;;;;;;;0.57;0.50;;;6.70;99.90;;;;;;4985200;28;20049;-71
2021/12/06 01:32:59;;;;;;;0.65;0.60;;;6.70;99.90;;;;;;4988263;28;20065;-72
2021/12/06 01:40:38;;;;;;;0.77;0.60;;;6.90;99.90;;;;;;4987266;28;20090;-72
2021/12/06 01:43:05;;;;;;;0.30;0.30;;;6.90;99.90;;;;;;4992122;28;20481;-72
2021/12/06 01:45:31;;;;;;;1.65;0.70;;;6.90;99.90;;;;;;4993466;28;20038;-72
2021/12/06 01:47:56;;;;;;;0.30;0.30;;;7.00;99.90;;;;;;4991754;28;20074;-72
2021/12/06 01:50:27;;;;;;;1.75;0.82;;;7.00;99.90;;;;;;4991049;28;20038;-72
2021/12/06 01:52:56;;;;;;;0.85;0.35;;;7.10;99.90;;;;;;4993268;28;20026;-72
2021/12/06 01:55:30;;;;;;;0.35;0.32;;;7.10;99.90;;;;;;4989761;28;20026;-72
2021/12/06 01:57:57;;;;;;;0.98;0.50;;;7.10;99.90;;;;;;4984171;28;20436;-72
2021/12/06 02:00:41;;;;;;;0.65;0.50;;;7.10;99.90;;;;;;4993976;28;20026;-72
2021/12/06 02:03:08;;;;;;;0.52;0.52;;;7.10;99.90;;;;;;4989955;28;20018;-72
2021/12/06 02:05:35;;;;;;;0.68;0.47;;;7.10;99.90;;;;;;4995492;28;20453;-72
2021/12/06 02:08:01;;;;;;;1.08;0.63;;;7.10;99.90;;;;;;4994414;28;20114;-72
2021/12/06 02:10:28;;;;;;;0.30;0.30;;;7.00;99.90;;;;;;4993536;28;20463;-71
2021/12/06 02:12:54;;;;;;;3.03;0.68;;;7.10;99.90;;;;;;4992050;28;20026;-72
2021/12/06 02:17:59;;;;;;;1.52;1.42;;;7.10;99.90;;;;;;4992926;28;20015;-72
2021/12/06 02:20:28;;;;;;;2.58;0.55;;;7.10;99.90;;;;;;4995986;28;20049;-72
2021/12/06 02:22:55;;;;;;;0.88;0.70;;;7.00;99.90;;;;;;4990310;28;20026;-72
2021/12/06 02:25:21;;;;;;;0.82;0.50;;;6.90;99.90;;;;;;4993214;28;20467;-73
2021/12/06 02:27:50;;;;;;;0.73;0.60;;;6.90;99.90;;;;;;4994806;28;20121;-71
2021/12/06 02:30:17;;;;;;;0.50;0.43;;;6.90;99.90;;;;;;4989772;28;20038;-71
2021/12/06 02:32:44;;;;;;;2.83;0.60;;;6.80;99.90;;;;;;4993259;28;20038;-71
2021/12/06 02:35:17;;;;;;;1.02;0.75;;;6.80;99.90;;;;;;4989255;28;20026;-72
2021/12/06 02:37:44;;;;;;;0.60;0.60;;;6.70;99.90;;;;;;4990323;28;20026;-73
2021/12/06 02:40:30;;;;;;;0.60;0.60;;;6.70;99.90;;;;;;4992893;28;20381;-72
2021/12/06 02:42:58;;;;;;;0.60;0.60;;;6.70;99.90;;;;;;4992298;28;20066;-71
2021/12/06 02:45:26;;;;;;;1.02;0.60;;;6.70;99.90;;;;;;4988767;28;20436;-72
2021/12/06 02:47:53;;;;;;;0.80;0.70;;;6.70;99.90;;;;;;4992406;28;20081;-72
2021/12/06 02:50:23;;;;;;;0.68;0.63;;;6.70;99.90;;;;;;4988620;28;20033;-72
2021/12/06 02:52:48;;;;;;;1.92;0.73;;;6.70;99.90;;;;;;4992342;28;20026;-72
2021/12/06 02:57:56;;;;;;;1.13;0.52;;;6.80;99.90;;;;;;4991934;28;20034;-72
2021/12/06 03:00:23;;;;;;;0.80;0.75;;;6.80;99.90;;;;;;4986586;28;20022;-72
2021/12/06 03:02:49;;;;;;;0.75;0.47;;;6.80;99.90;;;;;;4993152;28;20101;-72
2021/12/06 03:05:15;;;;;;;2.65;0.63;;;6.90;99.90;;;;;;4993937;28;20105;-71
2021/12/06 03:07:40;;;;;;;1.45;0.55;;;6.80;99.90;;;;;;4992490;28;20026;-71
2021/12/06 03:10:08;;;;;;;0.40;0.40;;;6.80;99.90;;;;;;4992609;28;20026;-71
2021/12/06 03:12:35;;;;;;;1.05;0.90;;;6.80;99.90;;;;;;4994585;28;20030;-71
2021/12/06 03:15:05;;;;;;;0.40;0.35;;;6.80;99.90;;;;;;4990865;28;20080;-71
2021/12/06 03:17:31;;;;;;;2.13;0.57;;;6.80;99.90;;;;;;4991376;28;20030;-72
2021/12/06 03:20:00;;;;;;;0.80;0.80;;;6.80;99.90;;;;;;4981080;28;20026;-72
2021/12/06 03:22:26;;;;;;;1.45;1.35;;;6.80;99.90;;;;;;4991374;28;20098;-71
2021/12/06 03:24:52;;;;;;;2.30;1.38;;;6.80;99.90;;;;;;4989424;28;20077;-71
2021/12/06 03:27:19;;;;;;;0.80;0.73;;;6.80;99.90;;;;;;4990141;28;20034;-71
2021/12/06 03:29:45;;;;;;;0.40;0.40;;;6.80;99.90;;;;;;4989272;28;20042;-71
2021/12/06 03:32:12;;;;;;;1.00;0.93;;;6.80;99.90;;;;;;4992742;28;20496;-70
2021/12/06 03:34:39;;;;;;;1.42;1.02;;;6.90;99.90;;;;;;4987053;28;20034;-71
2021/12/06 03:37:07;;;;;;;1.85;0.80;;;6.90;99.90;;;;;;4990331;28;20121;-72
2021/12/06 03:39:39;;;;;;;0.68;0.68;;;6.80;99.90;;;;;;4990979;28;20034;-72
2021/12/06 03:42:08;;;;;;;0.57;0.55;;;6.80;99.90;;;;;;4990413;28;20022;-71
2021/12/06 03:44:34;;;;;;;1.83;1.25;;;6.80;99.90;;;;;;4987090;28;20080;-71
2021/12/06 03:47:07;;;;;;;1.60;0.98;;;6.80;99.90;;;;;;4988903;28;20034;-74
2021/12/06 03:49:34;;;;;;;1.65;0.80;;;6.80;99.90;;;;;;4989015;28;20033;-74
2021/12/06 03:52:00;;;;;;;1.42;1.20;;;6.90;99.90;;;;;;4989955;28;20030;-74
2021/12/06 03:54:28;;;;;;;0.90;0.90;;;6.80;99.90;;;;;;4990590;28;20503;-74
2021/12/06 03:56:55;;;;;;;1.58;0.98;;;6.80;99.90;;;;;;4991448;28;20566;-75
2021/12/06 03:59:21;;;;;;;2.60;1.02;;;6.80;99.90;;;;;;4989961;28;20508;-74
2021/12/06 04:01:48;;;;;;;0.50;0.50;;;6.80;99.90;;;;;;4988311;28;20104;-74
2021/12/06 04:04:14;;;;;;;0.50;0.50;;;6.80;99.90;;;;;;4986667;28;20026;-74
2021/12/06 04:06:41;;;;;;;1.58;1.00;;;6.80;99.90;;;;;;4992033;28;20460;-75
2021/12/06 04:09:08;;;;;;;1.08;0.70;;;6.70;99.90;;;;;;4991611;28;20030;-74
2021/12/06 04:11:36;;;;;;;0.65;0.65;;;6.70;99.90;;;;;;4982691;28;20093;-75
2021/12/06 04:14:05;;;;;;;1.05;0.93;;;6.70;99.90;;;;;;4988000;28;20113;-74
2021/12/06 04:16:31;;;;;;;0.95;0.77;;;6.70;99.90;;;;;;4989241;28;20026;-73
2021/12/06 04:18:56;;;;;;;0.60;0.60;;;6.70;99.90;;;;;;4991383;28;20477;-74
2021/12/06 04:21:23;;;;;;;1.73;0.98;;;6.70;99.90;;;;;;4989610;28;20081;-75
2021/12/06 04:23:51;;;;;;;1.70;0.63;;;6.70;99.90;;;;;;4991978;28;20100;-75
2021/12/06 04:26:17;;;;;;;1.02;1.02;;;6.70;99.90;;;;;;4989435;28;20106;-73
2021/12/06 04:28:48;;;;;;;0.75;0.68;;;6.70;99.90;;;;;;4988864;28;20643;-74
2021/12/06 04:31:17;;;;;;;1.95;1.15;;;6.70;99.90;;;;;;4990836;28;20134;-73
2021/12/06 04:33:42;;;;;;;3.72;0.90;;;6.60;99.90;;;;;;4987805;28;20030;-75
2021/12/06 04:36:09;;;;;;;0.75;0.57;;;6.70;99.90;;;;;;4985791;28;20404;-75
2021/12/06 04:38:35;;;;;;;2.15;1.15;;;6.60;99.90;;;;;;4992166;28;20078;-74
2021/12/06 04:41:01;;;;;;;0.95;0.95;;;6.60;99.90;;;;;;4990938;28;20563;-74
2021/12/06 04:43:27;;;;;;;2.10;1.38;;;6.60;99.90;;;;;;4995467;28;20046;-74
2021/12/06 04:45:52;;;;;;;1.20;0.63;;;6.60;99.90;;;;;;4989918;28;20032;-74
2021/12/06 04:48:18;;;;;;;1.45;0.93;;;6.60;99.90;;;;;;4987793;28;20041;-74
2021/12/06 04:50:44;;;;;;;3.67;1.10;;;6.50;99.90;;;;;;4986478;28;20049;-74
2021/12/06 04:53:14;;;;;;;1.67;1.38;;;6.50;99.90;;;;;;4991115;28;20416;-74
2021/12/06 04:55:42;;;;;;;0.93;0.93;;;6.50;99.90;;;;;;4998155;28;20938;-74
2021/12/06 04:58:17;;;;;;;1.67;1.15;;;6.50;99.90;;;;;;4987212;28;20038;-74
2021/12/06 05:00:54;;;;;;;1.02;0.80;;;6.50;99.90;;;;;;4987227;28;20061;-74
2021/12/06 05:03:20;;;;;;;2.53;1.23;;;6.40;99.90;;;;;;4982649;28;20457;-74
2021/12/06 05:05:54;;;;;;;1.67;1.10;;;6.40;99.90;;;;;;4986995;28;20030;-73
2021/12/06 05:08:25;;;;;;;1.08;1.02;;;6.40;99.90;;;;;;4986472;28;20085;-73
2021/12/06 05:10:51;;;;;;;1.65;1.13;;;6.40;99.90;;;;;;4987386;28;20023;-73
2021/12/06 05:13:20;;;;;;;2.20;0.90;;;6.40;99.90;;;;;;4988923;28;20104;-73
2021/12/06 05:15:46;;;;;;;3.10;1.48;;;6.40;99.90;;;;;;4994812;28;20104;-74
2021/12/06 05:18:12;;;;;;;1.77;1.55;;;6.40;99.90;;;;;;4982776;28;20528;-73
2021/12/06 05:20:38;;;;;;;7.00;1.27;;;6.40;99.90;;;;;;4988488;28;20240;-74
2021/12/06 05:23:06;;;;;;;2.28;2.00;;;6.40;99.90;;;;;;4989953;28;20022;-74
2021/12/06 05:25:32;;;;;;;2.83;2.15;;;6.40;99.90;;;;;;4990443;28;20045;-73
2021/12/06 05:27:59;;;;;;;1.27;1.00;;;6.40;99.90;;;;;;4990624;28;20156;-74
2021/12/06 05:30:26;;;;;;;1.58;1.40;;;6.40;99.90;;;;;;4986310;28;20022;-73
2021/12/06 05:32:54;;;;;;;1.27;0.90;;;6.40;99.90;;;;;;4986098;28;20063;-73
2021/12/06 05:35:20;;;;;;;1.63;0.73;;;6.50;99.90;;;;;;4987393;28;20101;-73
2021/12/06 05:37:49;;;;;;;2.03;1.42;;;6.50;99.90;;;;;;4995733;28;20388;-74
2021/12/06 05:40:18;;;;;;;3.85;1.48;;;6.50;99.90;;;;;;4987473;28;20069;-73
2021/12/06 05:42:44;;;;;;;1.75;1.20;;;6.50;99.90;;;;;;4988286;28;20082;-73
2021/12/06 05:45:12;;;;;;;2.13;1.17;;;6.50;99.90;;;;;;4988395;28;20033;-76
2021/12/06 05:47:38;;;;;;;1.40;1.30;;;6.60;99.90;;;;;;4991225;28;20488;-73
2021/12/06 05:50:06;;;;;;;1.67;1.10;;;6.60;99.90;;;;;;4985739;28;20031;-73
2021/12/06 05:52:32;;;;;;;1.75;1.25;;;6.60;99.90;;;;;;4987172;28;20031;-73
2021/12/06 05:54:57;;;;;;;2.08;0.88;;;6.60;99.90;;;;;;4987715;28;20089;-74
2021/12/06 05:57:23;;;;;;;1.92;1.42;;;6.50;99.90;;;;;;4988554;28;21688;-75
2021/12/06 05:59:49;;;;;;;1.38;1.08;;;6.50;99.90;;;;;;4990478;28;20027;-75
2021/12/06 06:02:16;;;;;;;7.55;1.25;;;6.60;99.90;;;;;;4986090;28;20049;-75
2021/12/06 06:04:42;;;;;;;1.55;1.35;;;6.60;99.90;;;;;;4986134;28;20019;-74
2021/12/06 06:07:08;;;;;;;2.97;1.15;;;6.60;99.90;;;;;;4990289;28;20649;-74
2021/12/06 06:09:34;;;;;;;1.85;1.40;;;6.50;99.90;;;;;;4987020;28;20050;-74
2021/12/06 06:12:01;;;;;;;1.13;1.02;;;6.60;99.90;;;;;;4989602;28;20062;-73
2021/12/06 06:14:27;;;;;;;3.10;1.05;;;6.60;99.90;;;;;;4989788;28;20525;-73
2021/12/06 06:16:54;;;;;;;1.30;0.80;;;6.60;99.90;;;;;;4985192;28;20030;-75
2021/12/06 06:19:23;;;;;;;1.42;1.25;;;6.60;99.90;;;;;;4983050;28;20596;-74
2021/12/06 06:21:50;;;;;;;1.13;1.13;;;6.60;99.90;;;;;;4986888;28;20030;-73
2021/12/06 06:24:16;;;;;;;3.10;1.55;;;6.70;99.90;;;;;;4991549;28;20106;-72
2021/12/06 06:26:42;;;;;;;1.85;1.13;;;6.70;99.90;;;;;;4991870;28;20031;-72
2021/12/06 06:29:08;;;;;;;1.95;1.13;;;6.80;99.90;;;;;;4999033;28;20060;-75
2021/12/06 06:31:34;;;;;;;1.10;1.00;;;6.80;99.90;;;;;;4995117;28;20069;-71
2021/12/06 06:34:00;;;;;;;3.35;1.75;;;6.90;99.90;;;;;;4991674;28;20034;-73
2021/12/06 06:36:26;;;;;;;2.05;1.60;;;6.90;99.90;;;;;;4994033;28;20030;-73
2021/12/06 06:38:51;;;;;;;1.02;0.93;;;6.90;99.90;;;;;;4992715;28;20053;-74
2021/12/06 06:41:17;;;;;;;2.03;1.25;;;6.80;99.90;;;;;;4992915;28;20473;-74
2021/12/06 06:43:43;;;;;;;1.50;1.00;;;6.80;99.90;;;;;;4991933;28;20058;-74
2021/12/06 06:46:09;;;;;;;0.80;0.80;;;6.80;99.90;;;;;;4998364;28;20034;-73
2021/12/06 06:48:35;;;;;;;1.00;0.98;;;6.90;99.90;;;;;;4992860;28;20046;-68
2021/12/06 06:51:00;;;;;;;2.60;1.70;;;6.80;99.90;;;;;;4990278;28;20392;-69
2021/12/06 06:53:27;;;;;;;1.35;1.23;;;6.90;99.90;;;;;;4992037;28;20500;-69
2021/12/06 06:55:54;;;;;;;1.33;1.10;;;6.80;99.90;;;;;;4992234;28;20034;-68
2021/12/06 06:58:20;;;;;;;1.15;1.05;;;6.80;99.90;;;;;;4993507;28;20030;-68
2021/12/06 07:00:45;;;;;;;1.38;1.13;;;6.90;99.90;;;;;;4990817;28;20034;-68
2021/12/06 07:03:11;;;;;;;1.38;1.27;;;6.90;99.90;;;;;;4991036;28;20052;-68
2021/12/06 07:05:38;;;;;;;6.60;1.83;;;6.80;99.90;;;;;;4985501;28;20030;-69
2021/12/06 07:08:04;;;;;;;2.42;1.77;;;6.80;99.90;;;;;;4991977;28;20294;-67
2021/12/06 07:10:30;;;;;;;3.13;1.88;;;6.80;99.90;;;;;;4992776;28;20022;-68
2021/12/06 07:12:57;;;;;;;1.75;1.65;;;6.80;99.90;;;;;;4992002;28;20023;-69
2021/12/06 07:15:32;;;;;;;1.48;1.38;;;6.80;99.90;;;;;;4990968;28;20030;-69
2021/12/06 07:17:59;;;;;;;2.20;1.67;;;6.80;99.90;;;;;;4988699;28;20026;-69
2021/12/06 07:20:26;;;;;;;1.90;1.48;;;6.80;99.90;;;;;;4992235;28;20113;-68
2021/12/06 07:22:53;;;;;;;1.92;1.17;;;6.80;99.90;;;;;;4993391;28;20026;-68
2021/12/06 07:25:21;;;;;;;6.65;2.15;;;6.90;99.90;;;;;;4990623;28;20046;-69
2021/12/06 07:27:47;;;;;;;2.55;1.85;;;6.90;99.90;;;;;;4989859;28;20121;-70
2021/12/06 07:30:15;;;;;;;4.60;1.67;;;7.00;99.90;;;;;;4990922;28;20484;-70
2021/12/06 07:32:42;;;;;;;1.70;1.60;;;7.00;99.90;;;;;;4991057;28;20030;-68
2021/12/06 07:35:10;;;;;;;2.67;2.00;;;7.00;99.90;;;;;;4987822;28;20034;-70
2021/12/06 07:37:36;;;;;;;3.75;1.90;;;7.00;99.90;;;;;;4989153;28;20033;-70
2021/12/06 07:40:05;;;;;;;2.00;1.85;;;7.00;99.90;;;;;;4989198;28;20027;-69
2021/12/06 07:42:31;;;;;;;2.63;1.38;;;7.10;99.90;;;;;;4993690;28;20018;-67
2021/12/06 07:44:57;;;;;;;1.88;1.52;;;7.10;99.90;;;;;;4991100;28;20028;-69
2021/12/06 07:47:23;;;;;;;1.63;1.33;;;7.00;99.90;;;;;;4992519;28;20407;-68
2021/12/06 07:49:49;;;;;;;3.60;2.38;;;7.00;99.90;;;;;;4989686;28;20050;-69
2021/12/06 07:52:15;;;;;;;4.15;2.28;;;7.00;99.90;;;;;;4991898;28;20038;-69
2021/12/06 07:54:42;;;;;;;3.25;1.60;;;7.10;99.90;;;;;;4990218;28;20034;-68
2021/12/06 07:57:11;;;;;;;2.22;1.95;;;7.10;99.90;;;;;;4989056;28;20049;-67
2021/12/06 07:59:38;;;;;;;2.47;1.50;;;7.20;99.90;;;;;;4991417;28;20034;-72
2021/12/06 08:02:06;;;;;;;1.55;1.33;;;7.30;99.90;;;;;;4989969;28;20033;-69
2021/12/06 08:04:32;;;;;;;1.95;1.50;;;7.30;99.90;;;;;;4987714;28;20049;-67
2021/12/06 08:06:58;;;;;;;3.55;2.22;;;7.40;99.90;;;;;;4990541;28;20117;-68
2021/12/06 08:09:24;;;;;;;4.10;1.83;;;7.50;99.90;;;;;;4990158;28;20311;-67
2021/12/06 08:11:50;;;;;;;1.60;1.50;;;7.50;99.90;;;;;;4988864;28;20038;-68
2021/12/06 08:14:16;;;;;;;2.80;1.40;;;7.60;99.90;;;;;;4992410;28;20094;-68
2021/12/06 08:16:43;;;;;;;3.85;1.60;;;7.60;99.90;;;;;;4991509;28;20026;-67
2021/12/06 08:19:11;;;;;;;4.90;1.42;;;7.70;99.90;;;;;;4990941;28;20019;-69
2021/12/06 08:21:38;;;;;;;1.42;1.23;;;7.70;99.90;;;;;;4990207;28;20057;-67
2021/12/06 08:24:05;;;;;;;1.02;0.90;;;7.80;99.90;;;;;;4992338;28;20180;-68
2021/12/06 08:26:34;;;;;;;2.70;1.42;;;7.90;99.90;;;;;;4990784;28;20038;-66
2021/12/06 08:29:02;;;;;;;1.55;1.40;;;8.00;99.90;;;;;;4989813;28;20117;-67
2021/12/06 08:31:29;;;;;;;1.30;1.20;;;8.00;99.90;;;;;;4989062;28;20062;-68
2021/12/06 08:33:55;;;;;;;2.13;1.63;;;8.00;99.90;;;;;;4988597;28;20019;-68
2021/12/06 08:36:22;;;;;;;2.22;1.48;;;8.10;99.90;;;;;;4989121;28;20077;-68
2021/12/06 08:38:48;;;;;;;0.90;0.90;;;8.20;99.90;;;;;;4988983;28;20037;-69
2021/12/06 08:41:19;;;;;;;1.08;0.88;;;8.20;99.90;;;;;;4990327;28;20026;-68
2021/12/06 08:43:46;;;;;;;1.30;0.93;;;8.30;99.90;;;;;;4991684;28;20066;-67
2021/12/06 08:46:34;;;;;;;2.08;1.23;;;8.20;99.90;;;;;;4991783;28;20070;-68
2021/12/06 08:49:05;;;;;;;1.60;1.35;;;8.30;99.90;;;;;;4988873;28;20027;-68
2021/12/06 08:51:45;;;;;;;0.75;0.70;;;8.30;99.90;;;;;;4983627;28;20030;-69
2021/12/06 08:54:12;;;;;;;1.23;1.13;;;8.20;99.90;;;;;;4990424;28;20037;-68
2021/12/06 08:56:39;;;;;;;1.45;0.77;;;8.20;99.90;;;;;;4990174;28;20030;-68
2021/12/06 08:59:06;;;;;;;1.70;1.27;;;8.20;99.90;;;;;;4989419;28;20034;-68
2021/12/06 09:01:33;;;;;;;1.67;1.33;;;8.20;99.90;;;;;;4988794;28;20058;-68
2021/12/06 09:04:00;;;;;;;3.25;1.33;;;8.20;99.90;;;;;;4988452;28;20076;-67
2021/12/06 09:06:26;;;;;;;1.23;1.13;;;8.10;99.90;;;;;;4989207;28;20034;-67
2021/12/06 09:08:52;;;;;;;2.10;1.45;;;8.20;99.90;;;;;;4985984;28;20480;-68
2021/12/06 09:11:17;;;;;;;1.52;0.98;;;8.30;99.90;;;;;;4991199;28;20041;-69
2021/12/06 09:13:43;;;;;;;2.85;1.10;;;8.40;99.90;;;;;;4991546;28;20033;-68
2021/12/06 09:16:12;;;;;;;2.53;1.15;;;8.30;99.90;;;;;;4990246;28;20488;-68
2021/12/06 09:18:40;;;;;;;1.08;1.00;;;8.40;99.90;;;;;;4987423;28;20030;-68
2021/12/06 09:21:10;;;;;;;1.33;1.10;;;8.50;99.90;;;;;;4988624;28;20019;-67
2021/12/06 09:23:36;;;;;;;2.22;1.55;;;8.40;99.90;;;;;;4991444;28;20346;-68
2021/12/06 09:26:03;;;;;;;2.78;1.20;;;8.50;99.90;;;;;;4990638;28;20057;-68
2021/12/06 09:28:31;;;;;;;1.88;1.73;;;8.50;99.90;;;;;;4991486;28;20030;-70
2021/12/06 09:30:57;;;;;;;1.33;1.13;;;8.50;99.90;;;;;;4989546;28;20029;-68
2021/12/06 09:33:24;;;;;;;1.08;0.98;;;8.60;99.90;;;;;;4990748;28;20496;-67
2021/12/06 09:35:53;;;;;;;1.77;1.02;;;8.70;99.90;;;;;;4990580;28;20524;-68
2021/12/06 09:38:22;;;;;;;1.25;0.77;;;8.70;99.90;;;;;;4988258;28;20027;-68
2021/12/06 09:40:50;;;;;;;1.13;0.95;;;8.70;99.90;;;;;;4986375;28;20034;-69
2021/12/06 09:43:17;;;;;;;0.63;0.63;;;8.70;99.90;;;;;;4989178;28;20034;-68
2021/12/06 09:45:44;;;;;;;1.15;0.95;;;8.70;99.90;;;;;;4985053;28;20033;-68
2021/12/06 09:48:12;;;;;;;2.00;0.90;;;8.70;99.90;;;;;;4988113;28;20032;-71
2021/12/06 09:50:55;;;;;;;1.13;0.90;;;8.80;99.90;;;;;;4990368;28;20028;-71
2021/12/06 09:53:29;;;;;;;2.47;0.98;;;8.90;99.90;;;;;;4983876;28;20427;-67
2021/12/06 09:55:59;;;;;;;7.93;4.72;;;8.80;99.90;;;;;;4986036;28;20026;-68
2021/12/06 09:58:25;;;;;;;5.82;1.02;;;8.80;99.90;;;;;;4985320;28;20109;-68
2021/12/06 10:01:00;;;;;;;1.52;1.42;;;8.70;99.90;;;;;;4988824;28;20027;-71
2021/12/06 10:03:29;;;;;;;0.80;0.80;;;8.80;99.90;;;;;;4994669;28;20019;-68
2021/12/06 10:06:02;;;;;;;2.78;1.02;;;8.80;99.90;;;;;;4992332;28;20077;-71
2021/12/06 10:08:34;;;;;;;1.15;0.93;;;8.90;99.90;;;;;;4990343;28;20038;-68
2021/12/06 10:11:00;;;;;;;1.58;1.05;;;8.80;99.90;;;;;;4991914;28;20026;-69
2021/12/06 10:13:25;;;;;;;2.38;1.38;;;8.80;99.90;;;;;;4993417;28;20038;-70
2021/12/06 10:15:52;;;;;;;1.52;0.70;;;8.90;99.90;;;;;;4989270;28;20034;-67
2021/12/06 10:18:20;;;;;;;1.75;1.02;;;8.90;99.90;;;;;;4991630;28;20019;-69
2021/12/06 10:20:47;;;;;;;1.33;1.23;;;8.90;99.90;;;;;;4994443;28;20032;-71
2021/12/06 10:23:16;;;;;;;6.00;1.27;;;8.90;99.90;;;;;;4994177;28;20042;-67
2021/12/06 10:25:49;;;;;;;1.00;1.00;;;8.90;99.90;;;;;;4992197;28;20030;-69
2021/12/06 10:28:16;;;;;;;2.28;0.88;;;9.00;99.90;;;;;;4990353;28;20033;-69
2021/12/06 10:30:47;;;;;;;2.55;0.90;;;9.00;99.90;;;;;;4993819;28;20382;-69
2021/12/06 10:33:16;;;;;;;3.53;1.23;;;9.00;99.90;;;;;;4987898;28;20114;-68
2021/12/06 10:35:45;;;;;;;4.03;1.40;;;8.90;99.90;;;;;;4991109;28;20504;-69
2021/12/06 10:38:17;;;;;;;2.20;0.80;;;8.80;99.90;;;;;;4993239;28;20140;-71
2021/12/06 10:40:42;;;;;;;0.77;0.77;;;8.90;99.90;;;;;;4993388;28;20015;-68
2021/12/06 10:43:11;;;;;;;3.22;1.70;;;9.00;99.90;;;;;;4992135;28;20040;-68
2021/12/06 10:45:42;;;;;;;1.05;0.70;;;9.00;99.90;;;;;;4992804;28;20023;-71
2021/12/06 10:48:21;;;;;;;0.73;0.73;;;9.10;99.90;;;;;;4990758;28;20026;-68
2021/12/06 10:50:50;;;;;;;0.85;0.85;;;9.00;99.90;;;;;;4992931;28;20025;-69
2021/12/06 10:53:18;;;;;;;1.45;1.10;;;8.90;99.90;;;;;;4993011;28;20022;-68
2021/12/06 10:55:45;;;;;;;2.00;1.08;;;9.00;99.90;;;;;;4994492;28;20041;-68
2021/12/06 10:58:17;;;;;;;0.75;0.73;;;9.00;99.90;;;;;;4992564;28;20026;-68
2021/12/06 11:00:55;;;;;;;0.95;0.93;;;9.20;99.90;;;;;;4993020;28;20472;-70
2021/12/06 11:03:21;;;;;;;0.45;0.45;;;9.20;99.90;;;;;;4992915;28;20034;-69
2021/12/06 11:05:54;;;;;;;1.75;0.85;;;9.20;99.90;;;;;;4993200;28;20022;-71
2021/12/06 11:08:20;;;;;;;1.52;0.90;;;9.20;99.90;;;;;;4991189;28;20101;-69
2021/12/06 11:10:59;;;;;;;1.23;0.85;;;9.20;99.90;;;;;;4992084;28;20030;-69
2021/12/06 11:13:29;;;;;;;1.02;0.80;;;9.20;99.90;;;;;;4987192;28;20116;-70
2021/12/06 11:16:04;;;;;;;1.55;1.00;;;9.20;99.90;;;;;;4992188;28;20028;-69
2021/12/06 11:18:33;;;;;;;1.20;0.75;;;9.20;99.90;;;;;;4985869;28;20019;-67
2021/12/06 11:20:59;;;;;;;1.38;0.88;;;9.20;99.90;;;;;;4991207;28;20026;-67
2021/12/06 11:23:25;;;;;;;0.60;0.60;;;9.20;99.90;;;;;;4984176;28;20031;-68
2021/12/06 11:25:59;;;;;;;1.10;0.95;;;9.20;99.90;;;;;;4989513;28;20057;-69
2021/12/06 11:28:29;;;;;;;1.00;0.80;;;9.20;99.90;;;;;;4990809;28;20066;-68
2021/12/06 11:31:04;;;;;;;0.68;0.68;;;9.20;99.90;;;;;;4992910;28;20040;-69
2021/12/06 11:33:32;;;;;;;0.60;0.60;;;9.30;99.90;;;;;;4989101;28;20496;-68
2021/12/06 11:35:59;;;;;;;0.68;0.60;;;9.30;99.90;;;;;;4988894;28;20042;-67
2021/12/06 11:38:29;;;;;;;1.48;0.70;;;9.40;99.90;;;;;;4986604;28;20053;-67
2021/12/06 11:40:57;;;;;;;0.80;0.63;;;9.30;99.90;;;;;;4982023;28;20061;-67
2021/12/06 11:43:24;;;;;;;1.20;0.80;;;9.30;99.90;;;;;;4984372;28;20029;-68
2021/12/06 11:45:53;;;;;;;1.23;1.00;;;9.30;99.90;;;;;;4987508;28;20460;-69
2021/12/06 11:48:25;;;;;;;1.35;1.20;;;9.40;99.90;;;;;;4990947;28;20556;-68
2021/12/06 11:50:56;;;;;;;1.80;1.10;;;9.50;99.90;;;;;;4985657;28;20034;-70
2021/12/06 11:53:32;;;;;;;1.10;1.00;;;9.40;99.90;;;;;;4989159;28;20034;-70
2021/12/06 11:56:02;;;;;;;2.30;1.02;;;9.50;99.90;;;;;;4988245;28;20034;-67
2021/12/06 11:58:35;;;;;;;1.10;1.00;;;9.60;99.90;;;;;;4984271;28;20486;-68
2021/12/06 12:01:18;;;;;;;1.42;1.00;;;9.50;99.90;;;;;;5003371;28;20026;-70
2021/12/06 12:03:47;;;;;;;2.17;1.15;;;9.50;99.90;;;;;;4982713;28;20393;-68
2021/12/06 12:06:23;;;;;;;1.58;1.00;;;9.50;99.90;;;;;;4989130;28;20034;-68
2021/12/06 12:09:05;;;;;;;1.38;1.27;;;9.50;99.90;;;;;;4987650;28;20579;-68
2021/12/06 12:11:31;;;;;;;1.02;0.85;;;9.40;99.90;;;;;;4985906;28;20034;-70
2021/12/06 12:13:58;;;;;;;1.30;0.77;;;9.40;99.90;;;;;;4988519;28;20141;-69
2021/12/06 12:16:24;;;;;;;1.77;1.17;;;9.40;99.90;;;;;;4995373;28;20028;-67
2021/12/06 12:18:50;;;;;;;4.90;1.13;;;9.30;99.90;;;;;;4992098;28;20109;-69
2021/12/06 12:21:16;;;;;;;3.10;1.05;;;9.40;99.90;;;;;;4985780;28;20108;-68
2021/12/06 12:23:42;;;;;;;2.92;1.35;;;9.40;99.90;;;;;;4986832;28;20038;-67
2021/12/06 12:26:13;;;;;;;2.20;1.48;;;9.30;99.90;;;;;;4991702;28;20370;-69
2021/12/06 12:28:52;;;;;;;7.88;1.00;;;9.40;99.90;;;;;;4983807;28;20026;-67
2021/12/06 12:31:21;;;;;;;2.70;1.35;;;9.40;99.90;;;;;;4986062;28;20033;-68
2021/12/06 12:33:48;;;;;;;1.98;1.50;;;9.40;99.90;;;;;;4989847;28;20113;-70
2021/12/06 12:36:20;;;;;;;2.45;0.75;;;9.40;99.90;;;;;;4990169;28;20034;-71
2021/12/06 12:38:49;;;;;;;0.80;0.80;;;9.60;99.90;;;;;;4987529;28;20027;-68
2021/12/06 12:41:17;;;;;;;1.15;1.02;;;9.60;99.90;;;;;;4990091;28;20388;-68
2021/12/06 12:43:53;;;;;;;2.72;1.60;;;9.60;99.90;;;;;;4990690;28;20022;-70
2021/12/06 12:46:33;;;;;;;3.78;1.48;;;9.70;99.90;;;;;;4990826;28;20058;-68
2021/12/06 12:49:09;;;;;;;1.67;1.33;;;9.70;99.90;;;;;;4987825;28;20026;-70
2021/12/06 12:51:45;;;;;;;2.58;1.60;;;9.70;99.90;;;;;;4989211;28;20054;-69
2021/12/06 12:54:23;;;;;;;2.10;1.58;;;9.70;99.90;;;;;;4989549;28;20030;-68
2021/12/06 12:57:00;;;;;;;1.38;1.27;;;9.60;99.90;;;;;;4987704;28;20062;-68
2021/12/06 12:59:35;;;;;;;1.90;1.35;;;9.40;99.90;;;;;;4987051;28;20053;-68
2021/12/06 13:02:17;;;;;;;1.20;0.70;;;9.50;99.90;;;;;;4987346;28;20026;-68
2021/12/06 13:04:58;;;;;;;1.08;0.98;;;9.40;99.90;;;;;;4990068;28;20154;-68
2021/12/06 13:07:50;;;;;;;1.52;1.13;;;9.40;99.90;;;;;;4983362;28;20077;-69
2021/12/06 13:10:34;;;;;;;1.42;0.90;;;9.40;99.90;;;;;;4983030;28;20385;-67
2021/12/06 13:13:27;;;;;;;3.03;2.78;;;9.40;99.90;;;;;;4988469;28;20034;-67
2021/12/06 13:16:11;;;;;;;1.73;1.20;;;9.50;99.90;;;;;;4981045;28;20177;-69
2021/12/06 13:18:59;;;;;;;1.52;1.35;;;9.50;99.90;;;;;;4992103;28;20029;-71
2021/12/06 13:21:27;;;;;;;2.08;1.52;;;9.60;99.90;;;;;;4988287;28;20018;-68